Time;durP1;ratioP1;P1;durP2;ratioP2;P2;SDS_P1;SDS_P2;PMS_P1;PMS_P2;Temp;Humidity;BMP_temperature;BMP_pressure;BME280_temperature;BME280_humidity;BME280_pressure;Samples;Min_cycle;Max_cycle;Signal;HPM_P1;HPM_P2
2021/05/17 00:01:35;;;;;;;0.40;0.40;;;;;;;;;;5008630;28;20019;-70
2021/05/17 00:04:03;;;;;;;0.40;0.40;;;;;;;;;;5009630;28;20022;-70
2021/05/17 00:06:29;;;;;;;0.40;0.40;;;;;;;;;;5010254;28;20018;-70
2021/05/17 00:08:54;;;;;;;0.50;0.50;;;;;;;;;;5008284;28;20041;-69
2021/05/17 00:11:19;;;;;;;0.40;0.40;;;;;;;;;;5009364;28;20018;-70
2021/05/17 00:13:45;;;;;;;0.50;0.50;;;;;;;;;;5009699;28;20021;-71
2021/05/17 00:16:10;;;;;;;0.50;0.50;;;;;;;;;;5010263;28;20036;-70
2021/05/17 00:18:36;;;;;;;0.40;0.40;;;;;;;;;;5008532;28;20026;-71
2021/05/17 00:21:03;;;;;;;0.40;0.40;;;;;;;;;;5009753;28;20022;-70
2021/05/17 00:23:28;;;;;;;0.50;0.50;;;;;;;;;;5009430;28;20057;-70
2021/05/17 00:25:54;;;;;;;0.50;0.50;;;;;;;;;;5017736;28;20049;-70
2021/05/17 00:28:19;;;;;;;0.40;0.40;;;;;;;;;;5023777;28;20029;-69
2021/05/17 00:30:45;;;;;;;0.40;0.40;;;;;;;;;;5008534;28;20029;-70
2021/05/17 00:33:10;;;;;;;0.40;0.40;;;;;;;;;;5008858;28;20018;-70
2021/05/17 00:35:35;;;;;;;0.47;0.47;;;;;;;;;;5009882;28;20033;-70
2021/05/17 00:38:01;;;;;;;0.47;0.47;;;;;;;;;;5008025;28;20099;-70
2021/05/17 00:40:26;;;;;;;0.50;0.50;;;;;;;;;;5009278;28;20100;-71
2021/05/17 00:42:52;;;;;;;0.40;0.40;;;;;;;;;;5008324;28;20154;-70
2021/05/17 00:45:17;;;;;;;0.50;0.50;;;;;;;;;;5009667;28;20022;-69
2021/05/17 00:47:44;;;;;;;0.47;0.47;;;;;;;;;;5008508;28;20014;-70
2021/05/17 00:50:10;;;;;;;0.47;0.47;;;;;;;;;;5009911;28;20018;-69
2021/05/17 00:52:36;;;;;;;0.50;0.50;;;;;;;;;;5010350;28;20017;-72
2021/05/17 00:55:01;;;;;;;0.50;0.50;;;;;;;;;;5010060;28;20105;-69
2021/05/17 00:57:27;;;;;;;0.50;0.50;;;;;;;;;;5009913;28;20076;-69
2021/05/17 00:59:52;;;;;;;0.47;0.47;;;;;;;;;;5009543;28;20121;-70
2021/05/17 01:02:17;;;;;;;0.50;0.50;;;;;;;;;;5009851;28;20040;-70
2021/05/17 01:04:43;;;;;;;0.50;0.50;;;;;;;;;;5008563;28;20068;-71
2021/05/17 01:07:08;;;;;;;0.50;0.50;;;;;;;;;;5009626;28;20024;-70
2021/05/17 01:09:36;;;;;;;0.50;0.50;;;;;;;;;;5012712;28;20041;-69
2021/05/17 01:12:04;;;;;;;0.50;0.50;;;;;;;;;;5023263;28;20018;-71
2021/05/17 01:14:32;;;;;;;0.50;0.50;;;;;;;;;;5029008;28;20025;-70
2021/05/17 01:17:00;;;;;;;0.50;0.50;;;;;;;;;;5028950;28;20017;-70
2021/05/17 01:19:25;;;;;;;;;;;;;;;;;;5029400;28;20026;-70
2021/05/17 01:21:56;;;;;;;0.60;0.60;;;;;;;;;;5026916;28;19967;-69
2021/05/17 01:24:21;;;;;;;0.50;0.50;;;;;;;;;;5028762;28;20262;-70
2021/05/17 01:26:46;;;;;;;0.40;0.40;;;;;;;;;;5029078;28;20391;-70
2021/05/17 01:29:12;;;;;;;0.50;0.50;;;;;;;;;;5028413;28;20017;-70
2021/05/17 01:31:37;;;;;;;0.40;0.40;;;;;;;;;;5029167;28;20009;-70
2021/05/17 01:34:03;;;;;;;0.50;0.50;;;;;;;;;;5028497;28;20029;-70
2021/05/17 01:36:29;;;;;;;0.50;0.50;;;;;;;;;;5027333;28;20529;-69
2021/05/17 01:38:55;;;;;;;0.50;0.50;;;;;;;;;;5028608;28;20023;-70
2021/05/17 01:41:23;;;;;;;0.50;0.50;;;;;;;;;;5028063;28;20061;-69
2021/05/17 01:43:51;;;;;;;0.77;0.60;;;;;;;;;;5029032;28;20063;-70
2021/05/17 01:46:26;;;;;;;0.50;0.50;;;;;;;;;;5029111;28;20100;-69
2021/05/17 01:48:54;;;;;;;0.50;0.50;;;;;;;;;;5028574;28;20033;-72
2021/05/17 01:51:20;;;;;;;0.50;0.50;;;;;;;;;;5011191;28;20029;-69
2021/05/17 01:53:46;;;;;;;0.50;0.50;;;;;;;;;;5008797;28;20022;-70
2021/05/17 01:56:12;;;;;;;0.60;0.60;;;;;;;;;;5008894;28;20034;-70
2021/05/17 01:58:38;;;;;;;0.50;0.50;;;;;;;;;;5008794;28;20029;-70
2021/05/17 02:01:04;;;;;;;0.50;0.50;;;;;;;;;;5007109;28;20438;-72
2021/05/17 02:03:35;;;;;;;0.50;0.50;;;;;;;;;;5007149;28;20088;-70
2021/05/17 02:06:00;;;;;;;0.40;0.40;;;;;;;;;;5009061;28;20072;-69
2021/05/17 02:08:26;;;;;;;0.50;0.50;;;;;;;;;;5008962;28;20022;-70
2021/05/17 02:10:51;;;;;;;0.60;0.60;;;;;;;;;;5007062;28;20022;-70
2021/05/17 02:13:18;;;;;;;0.50;0.50;;;;;;;;;;5009193;28;20014;-70
2021/05/17 02:15:44;;;;;;;0.60;0.60;;;;;;;;;;5011416;28;20022;-70
2021/05/17 02:18:09;;;;;;;0.50;0.50;;;;;;;;;;5012715;28;20428;-69
2021/05/17 02:20:37;;;;;;;0.50;0.50;;;;;;;;;;5012156;28;20072;-69
2021/05/17 02:23:02;;;;;;;0.50;0.50;;;;;;;;;;5012071;28;20111;-70
2021/05/17 02:25:28;;;;;;;0.40;0.40;;;;;;;;;;5015857;28;20446;-70
2021/05/17 02:27:53;;;;;;;0.50;0.50;;;;;;;;;;5029051;28;20020;-69
2021/05/17 02:30:19;;;;;;;0.50;0.50;;;;;;;;;;5012244;28;20391;-69
2021/05/17 02:32:45;;;;;;;0.50;0.50;;;;;;;;;;5012205;28;20044;-70
2021/05/17 02:35:10;;;;;;;0.40;0.40;;;;;;;;;;5011968;28;20156;-71
2021/05/17 02:37:36;;;;;;;0.50;0.50;;;;;;;;;;5011490;28;20034;-70
2021/05/17 02:40:03;;;;;;;0.50;0.50;;;;;;;;;;5027036;28;20056;-70
2021/05/17 02:42:28;;;;;;;0.50;0.50;;;;;;;;;;5010931;28;20491;-70
2021/05/17 02:44:55;;;;;;;0.50;0.50;;;;;;;;;;5011371;28;20036;-69
2021/05/17 02:47:20;;;;;;;0.50;0.50;;;;;;;;;;5011366;28;20041;-69
2021/05/17 02:49:46;;;;;;;0.50;0.50;;;;;;;;;;5011461;28;20096;-69
2021/05/17 02:52:11;;;;;;;0.50;0.50;;;;;;;;;;5011339;28;20026;-70
2021/05/17 02:54:37;;;;;;;0.50;0.50;;;;;;;;;;5010434;28;20026;-70
2021/05/17 02:57:07;;;;;;;0.50;0.50;;;;;;;;;;5011837;28;20033;-70
2021/05/17 02:59:36;;;;;;;0.50;0.50;;;;;;;;;;5026100;28;20213;-69
2021/05/17 03:02:05;;;;;;;0.40;0.40;;;;;;;;;;5011712;28;20049;-71
2021/05/17 03:04:32;;;;;;;0.50;0.50;;;;;;;;;;5011034;28;20096;-69
2021/05/17 03:07:08;;;;;;;0.60;0.60;;;;;;;;;;5011452;28;20110;-70
2021/05/17 03:09:35;;;;;;;0.60;0.60;;;;;;;;;;5011218;28;20013;-69
2021/05/17 03:12:02;;;;;;;0.50;0.50;;;;;;;;;;5011425;28;20200;-69
2021/05/17 03:14:28;;;;;;;0.50;0.50;;;;;;;;;;5009217;28;20061;-70
2021/05/17 03:16:59;;;;;;;0.50;0.50;;;;;;;;;;5011092;28;20041;-70
2021/05/17 03:19:25;;;;;;;0.50;0.50;;;;;;;;;;5011175;28;20026;-69
2021/05/17 03:21:53;;;;;;;0.50;0.50;;;;;;;;;;5012821;28;20044;-70
2021/05/17 03:24:19;;;;;;;0.50;0.50;;;;;;;;;;5011501;28;20018;-70
2021/05/17 03:26:44;;;;;;;0.50;0.50;;;;;;;;;;5019198;28;20029;-69
2021/05/17 03:29:09;;;;;;;0.50;0.50;;;;;;;;;;5020389;28;20085;-72
2021/05/17 03:31:34;;;;;;;0.50;0.50;;;;;;;;;;5010742;28;20559;-70
2021/05/17 03:34:00;;;;;;;0.50;0.50;;;;;;;;;;5010526;28;20014;-70
2021/05/17 03:36:25;;;;;;;0.50;0.50;;;;;;;;;;5011261;28;20022;-69
2021/05/17 03:38:50;;;;;;;0.60;0.60;;;;;;;;;;5011312;28;20021;-69
2021/05/17 03:41:16;;;;;;;0.55;0.55;;;;;;;;;;5009988;28;20391;-69
2021/05/17 03:43:41;;;;;;;0.43;0.43;;;;;;;;;;5010495;28;20034;-71
2021/05/17 03:46:06;;;;;;;0.50;0.50;;;;;;;;;;5010045;28;20018;-69
2021/05/17 03:48:31;;;;;;;0.50;0.50;;;;;;;;;;5010853;28;20068;-69
2021/05/17 03:50:57;;;;;;;0.50;0.50;;;;;;;;;;5010517;28;20022;-69
2021/05/17 03:53:22;;;;;;;0.50;0.50;;;;;;;;;;5010164;28;20080;-69
2021/05/17 03:55:47;;;;;;;0.50;0.50;;;;;;;;;;5010005;28;20515;-69
2021/05/17 03:58:12;;;;;;;0.50;0.50;;;;;;;;;;5010070;28;20057;-70
2021/05/17 04:00:38;;;;;;;0.60;0.60;;;;;;;;;;5010299;28;20021;-70
2021/05/17 04:03:11;;;;;;;0.50;0.50;;;;;;;;;;5009975;28;20323;-70
2021/05/17 04:13:26;;;;;;;0.50;0.50;;;;;;;;;;5009893;28;20080;-70
2021/05/17 04:15:52;;;;;;;0.50;0.50;;;;;;;;;;5009650;28;20021;-70
2021/05/17 04:18:18;;;;;;;0.50;0.50;;;;;;;;;;5010050;28;20044;-70
2021/05/17 04:20:44;;;;;;;0.50;0.50;;;;;;;;;;5009807;28;20472;-69
2021/05/17 04:23:09;;;;;;;0.50;0.50;;;;;;;;;;5024966;28;20021;-69
2021/05/17 04:25:34;;;;;;;0.50;0.50;;;;;;;;;;5041616;28;20392;-69
2021/05/17 04:27:59;;;;;;;0.50;0.50;;;;;;;;;;5009587;28;20456;-68
2021/05/17 04:30:25;;;;;;;0.50;0.50;;;;;;;;;;5024796;28;20021;-70
2021/05/17 04:32:50;;;;;;;0.50;0.50;;;;;;;;;;5010282;28;20037;-69
2021/05/17 04:35:15;;;;;;;0.50;0.50;;;;;;;;;;5023534;28;20021;-70
2021/05/17 04:37:41;;;;;;;0.50;0.50;;;;;;;;;;5028642;28;20029;-71
2021/05/17 04:40:07;;;;;;;0.43;0.43;;;;;;;;;;5029295;28;20057;-69
2021/05/17 04:42:32;;;;;;;0.50;0.50;;;;;;;;;;5028785;28;20048;-69
2021/05/17 04:44:57;;;;;;;0.57;0.57;;;;;;;;;;5029286;28;20437;-70
2021/05/17 04:47:22;;;;;;;0.50;0.50;;;;;;;;;;5029666;28;20025;-70
2021/05/17 04:49:48;;;;;;;0.50;0.50;;;;;;;;;;5027659;28;20463;-70
2021/05/17 04:52:13;;;;;;;0.50;0.50;;;;;;;;;;5029381;28;20014;-70
2021/05/17 04:54:38;;;;;;;0.50;0.50;;;;;;;;;;5029433;28;20033;-69
2021/05/17 04:57:04;;;;;;;0.50;0.50;;;;;;;;;;5029090;28;20024;-69
2021/05/17 04:59:29;;;;;;;0.50;0.50;;;;;;;;;;5029261;28;20053;-70
2021/05/17 05:01:54;;;;;;;0.50;0.50;;;;;;;;;;5028498;28;20222;-70
2021/05/17 05:04:19;;;;;;;0.45;0.45;;;;;;;;;;5029066;28;20105;-70
2021/05/17 05:06:45;;;;;;;0.50;0.50;;;;;;;;;;5026805;28;20562;-70
2021/05/17 05:09:10;;;;;;;0.60;0.60;;;;;;;;;;5028683;28;20024;-70
2021/05/17 05:11:35;;;;;;;0.50;0.50;;;;;;;;;;5027695;28;20462;-70
2021/05/17 05:14:00;;;;;;;0.50;0.50;;;;;;;;;;5029098;28;20080;-70
2021/05/17 05:16:26;;;;;;;0.55;0.55;;;;;;;;;;5029374;28;20021;-71
2021/05/17 05:18:51;;;;;;;0.50;0.50;;;;;;;;;;5010841;28;20476;-70
2021/05/17 05:21:18;;;;;;;0.50;0.50;;;;;;;;;;5020463;28;20076;-71
2021/05/17 05:23:45;;;;;;;0.50;0.50;;;;;;;;;;5008787;28;20280;-70
2021/05/17 05:34:02;;;;;;;0.50;0.50;;;;;;;;;;5008991;28;20076;-70
2021/05/17 05:36:27;;;;;;;;;;;;;;;;;;5010146;28;20052;-70
2021/05/17 05:38:52;;;;;;;0.60;0.60;;;;;;;;;;5008020;28;19910;-70
2021/05/17 05:41:17;;;;;;;0.50;0.50;;;;;;;;;;5008402;28;20695;-71
2021/05/17 05:43:42;;;;;;;0.50;0.50;;;;;;;;;;5016450;28;20569;-69
2021/05/17 05:46:10;;;;;;;0.50;0.50;;;;;;;;;;5027436;28;20120;-69
2021/05/17 05:48:47;;;;;;;0.50;0.50;;;;;;;;;;5029404;28;20021;-69
2021/05/17 05:51:13;;;;;;;0.50;0.50;;;;;;;;;;5031665;28;20083;-71
2021/05/17 05:53:38;;;;;;;0.50;0.50;;;;;;;;;;5032026;28;20039;-70
2021/05/17 05:56:03;;;;;;;0.55;0.45;;;;;;;;;;5032600;28;20029;-71
2021/05/17 05:58:31;;;;;;;0.50;0.50;;;;;;;;;;5032360;28;20151;-71
2021/05/17 06:00:56;;;;;;;0.40;0.40;;;;;;;;;;5017318;28;20545;-71
2021/05/17 06:03:21;;;;;;;0.50;0.50;;;;;;;;;;5030518;28;20033;-70
2021/05/17 06:05:47;;;;;;;0.50;0.50;;;;;;;;;;5021012;28;20110;-73
2021/05/17 06:08:12;;;;;;;0.50;0.50;;;;;;;;;;5027016;28;20052;-72
2021/05/17 06:10:37;;;;;;;0.40;0.40;;;;;;;;;;5010806;28;20602;-71
2021/05/17 06:13:03;;;;;;;0.40;0.40;;;;;;;;;;5012282;28;20057;-70
2021/05/17 06:15:28;;;;;;;0.50;0.50;;;;;;;;;;5012592;28;20018;-69
2021/05/17 06:17:53;;;;;;;0.50;0.50;;;;;;;;;;5012366;28;20018;-70
2021/05/17 06:20:19;;;;;;;0.40;0.40;;;;;;;;;;5029849;28;20148;-74
2021/05/17 06:22:44;;;;;;;0.40;0.40;;;;;;;;;;5017156;28;20033;-70
2021/05/17 06:25:11;;;;;;;0.40;0.40;;;;;;;;;;5018154;28;20480;-70
2021/05/17 06:27:37;;;;;;;0.40;0.40;;;;;;;;;;5015535;28;20049;-70
2021/05/17 06:30:03;;;;;;;0.50;0.50;;;;;;;;;;5011955;28;20021;-70
2021/05/17 06:32:29;;;;;;;0.40;0.40;;;;;;;;;;5011680;28;20097;-70
2021/05/17 06:34:56;;;;;;;0.50;0.50;;;;;;;;;;5011563;28;20347;-71
2021/05/17 06:37:21;;;;;;;0.47;0.47;;;;;;;;;;5010345;28;20018;-70
2021/05/17 06:39:49;;;;;;;0.50;0.50;;;;;;;;;;5026264;28;20633;-70
2021/05/17 06:42:14;;;;;;;0.50;0.50;;;;;;;;;;5009251;28;20117;-70
2021/05/17 06:44:40;;;;;;;0.50;0.50;;;;;;;;;;5011445;28;20109;-72
2021/05/17 06:47:10;;;;;;;0.60;0.60;;;;;;;;;;5011215;28;20098;-71
2021/05/17 06:49:35;;;;;;;0.50;0.50;;;;;;;;;;5011143;28;20018;-71
2021/05/17 06:52:01;;;;;;;0.60;0.60;;;;;;;;;;5009168;28;20022;-71
2021/05/17 06:54:29;;;;;;;0.50;0.50;;;;;;;;;;5044034;28;20044;-71
2021/05/17 06:57:10;;;;;;;0.60;0.60;;;;;;;;;;5011550;28;20018;-71
2021/05/17 06:59:47;;;;;;;0.50;0.50;;;;;;;;;;5011448;28;20014;-73
2021/05/17 07:02:22;;;;;;;0.50;0.50;;;;;;;;;;5009529;28;20029;-71
2021/05/17 07:04:48;;;;;;;0.60;0.60;;;;;;;;;;5011663;28;20030;-71
2021/05/17 07:07:14;;;;;;;0.60;0.60;;;;;;;;;;5026835;28;20088;-70
2021/05/17 07:12:23;;;;;;;0.60;0.60;;;;;;;;;;5011019;28;20049;-70
2021/05/17 07:14:48;;;;;;;0.60;0.60;;;;;;;;;;5010886;28;20708;-72
2021/05/17 07:17:16;;;;;;;0.60;0.60;;;;;;;;;;5042646;28;20027;-72
2021/05/17 07:19:42;;;;;;;0.50;0.50;;;;;;;;;;5009505;28;20250;-71
2021/05/17 07:24:51;;;;;;;0.60;0.60;;;;;;;;;;5015544;28;20029;-72
2021/05/17 07:27:18;;;;;;;0.50;0.50;;;;;;;;;;5024175;28;20026;-72
2021/05/17 07:29:43;;;;;;;0.50;0.50;;;;;;;;;;5020977;28;20018;-72
2021/05/17 07:32:10;;;;;;;0.50;0.50;;;;;;;;;;5020164;28;20049;-70
2021/05/17 07:34:36;;;;;;;0.52;0.52;;;;;;;;;;5037153;28;20078;-70
2021/05/17 07:37:07;;;;;;;0.50;0.50;;;;;;;;;;5063507;28;20593;-71
2021/05/17 07:39:33;;;;;;;0.50;0.50;;;;;;;;;;5029590;28;20442;-72
2021/05/17 07:41:58;;;;;;;0.50;0.50;;;;;;;;;;5027551;28;20585;-73
2021/05/17 07:44:24;;;;;;;0.50;0.50;;;;;;;;;;5008967;28;20022;-70
2021/05/17 07:46:49;;;;;;;0.50;0.50;;;;;;;;;;5010876;28;20022;-72
2021/05/17 07:49:17;;;;;;;0.50;0.50;;;;;;;;;;5010327;28;20026;-71
2021/05/17 07:51:44;;;;;;;0.68;0.60;;;;;;;;;;5025520;28;20146;-71
2021/05/17 07:54:14;;;;;;;0.50;0.50;;;;;;;;;;5010411;28;20025;-71
2021/05/17 07:56:39;;;;;;;0.40;0.40;;;;;;;;;;5010891;28;20022;-71
2021/05/17 07:59:07;;;;;;;0.40;0.40;;;;;;;;;;5010601;28;20028;-70
2021/05/17 08:01:33;;;;;;;0.40;0.40;;;;;;;;;;5025606;28;20025;-70
2021/05/17 08:03:58;;;;;;;0.40;0.40;;;;;;;;;;5010165;28;20018;-70
2021/05/17 08:06:24;;;;;;;0.40;0.40;;;;;;;;;;5010117;28;20022;-70
2021/05/17 08:08:50;;;;;;;0.50;0.50;;;;;;;;;;5008527;28;20057;-71
2021/05/17 08:11:15;;;;;;;0.40;0.40;;;;;;;;;;5010111;28;20038;-71
2021/05/17 08:13:41;;;;;;;0.40;0.40;;;;;;;;;;5008674;28;20033;-71
2021/05/17 08:16:07;;;;;;;0.40;0.40;;;;;;;;;;5008632;28;20464;-69
2021/05/17 08:18:32;;;;;;;0.50;0.50;;;;;;;;;;5010676;28;20034;-69
2021/05/17 08:21:00;;;;;;;0.30;0.30;;;;;;;;;;5025169;28;20549;-70
2021/05/17 08:23:25;;;;;;;0.40;0.40;;;;;;;;;;5009837;28;20495;-71
2021/05/17 08:25:51;;;;;;;0.40;0.40;;;;;;;;;;5020596;28;20037;-70
2021/05/17 08:28:16;;;;;;;0.50;0.50;;;;;;;;;;5022983;28;20060;-71
2021/05/17 08:30:43;;;;;;;0.50;0.50;;;;;;;;;;5008342;28;20037;-71
2021/05/17 08:33:11;;;;;;;0.40;0.40;;;;;;;;;;5009380;28;20029;-71
2021/05/17 08:35:37;;;;;;;0.40;0.40;;;;;;;;;;5009348;28;20034;-72
2021/05/17 08:38:02;;;;;;;0.40;0.40;;;;;;;;;;5009010;28;20084;-72
2021/05/17 08:40:28;;;;;;;0.40;0.40;;;;;;;;;;5009829;28;20473;-73
2021/05/17 08:42:54;;;;;;;0.38;0.38;;;;;;;;;;5009679;28;20036;-71
2021/05/17 08:45:19;;;;;;;0.30;0.30;;;;;;;;;;5009017;28;20097;-71
2021/05/17 08:47:45;;;;;;;0.40;0.40;;;;;;;;;;5025128;28;20117;-72
2021/05/17 08:50:10;;;;;;;0.40;0.40;;;;;;;;;;5024735;28;20464;-70
2021/05/17 08:52:37;;;;;;;0.40;0.40;;;;;;;;;;5009815;28;20025;-70
2021/05/17 08:55:05;;;;;;;0.50;0.50;;;;;;;;;;5024906;28;20057;-70
2021/05/17 08:57:30;;;;;;;0.40;0.40;;;;;;;;;;5024780;28;20058;-72
2021/05/17 08:59:55;;;;;;;0.40;0.40;;;;;;;;;;5008664;28;20056;-70
2021/05/17 09:02:21;;;;;;;0.40;0.40;;;;;;;;;;5009533;28;20431;-70
2021/05/17 09:05:05;;;;;;;0.40;0.40;;;;;;;;;;5009410;28;20749;-72
2021/05/17 09:07:50;;;;;;;0.50;0.50;;;;;;;;;;5009571;28;20022;-70
2021/05/17 09:10:26;;;;;;;0.40;0.40;;;;;;;;;;5008882;28;20423;-70
2021/05/17 09:13:03;;;;;;;0.40;0.40;;;;;;;;;;5009201;28;20030;-71
2021/05/17 09:15:28;;;;;;;0.40;0.40;;;;;;;;;;5009513;28;20111;-75
2021/05/17 09:17:57;;;;;;;0.40;0.40;;;;;;;;;;5007432;28;20081;-73
2021/05/17 09:20:25;;;;;;;0.30;0.30;;;;;;;;;;5008327;28;20056;-72
2021/05/17 09:23:04;;;;;;;0.30;0.30;;;;;;;;;;5008822;28;20026;-72
2021/05/17 09:25:29;;;;;;;0.38;0.38;;;;;;;;;;5012062;28;20319;-73
2021/05/17 09:27:59;;;;;;;0.40;0.40;;;;;;;;;;5012808;28;20022;-74
2021/05/17 09:30:25;;;;;;;0.30;0.30;;;;;;;;;;5027634;28;20022;-72
2021/05/17 09:32:50;;;;;;;0.30;0.30;;;;;;;;;;5011453;28;20029;-74
2021/05/17 09:35:17;;;;;;;0.50;0.50;;;;;;;;;;5006118;28;20036;-72
2021/05/17 09:37:47;;;;;;;0.35;0.35;;;;;;;;;;5009776;28;20454;-72
2021/05/17 09:40:39;;;;;;;0.30;0.30;;;;;;;;;;5009223;28;20333;-72
2021/05/17 09:43:05;;;;;;;0.50;0.50;;;;;;;;;;5008646;28;20045;-73
2021/05/17 09:45:31;;;;;;;0.50;0.50;;;;;;;;;;5010780;28;20022;-73
2021/05/17 09:47:57;;;;;;;0.47;0.47;;;;;;;;;;5010433;28;20105;-73
2021/05/17 09:50:22;;;;;;;0.50;0.50;;;;;;;;;;5010313;28;20100;-74
2021/05/17 09:52:47;;;;;;;0.43;0.43;;;;;;;;;;5008558;28;20468;-73
2021/05/17 09:55:12;;;;;;;0.50;0.50;;;;;;;;;;5012377;28;20443;-74
2021/05/17 09:57:41;;;;;;;0.40;0.40;;;;;;;;;;5029856;28;20030;-74
2021/05/17 10:00:08;;;;;;;0.40;0.40;;;;;;;;;;5029945;28;20032;-74
2021/05/17 10:02:37;;;;;;;0.38;0.38;;;;;;;;;;5026877;28;20096;-72
2021/05/17 10:05:33;;;;;;;0.40;0.40;;;;;;;;;;5027900;28;20081;-73
2021/05/17 10:08:08;;;;;;;0.50;0.50;;;;;;;;;;5027722;28;20083;-75
2021/05/17 10:10:33;;;;;;;0.30;0.30;;;;;;;;;;5028566;28;20338;-74
2021/05/17 10:13:03;;;;;;;0.30;0.30;;;;;;;;;;5029722;28;20096;-73
2021/05/17 10:15:29;;;;;;;0.40;0.40;;;;;;;;;;5030162;28;20769;-74
2021/05/17 10:17:55;;;;;;;0.40;0.40;;;;;;;;;;5033490;28;20022;-73
2021/05/17 10:20:22;;;;;;;0.30;0.30;;;;;;;;;;5033428;28;20477;-74
2021/05/17 10:22:49;;;;;;;0.40;0.40;;;;;;;;;;5030411;28;20199;-74
2021/05/17 10:25:19;;;;;;;0.40;0.40;;;;;;;;;;5029742;28;20028;-70
2021/05/17 10:27:46;;;;;;;0.40;0.40;;;;;;;;;;5030491;28;20041;-73
2021/05/17 10:30:12;;;;;;;0.30;0.30;;;;;;;;;;5029948;28;20430;-76
2021/05/17 10:32:43;;;;;;;0.40;0.40;;;;;;;;;;5027997;28;20037;-75
2021/05/17 10:35:11;;;;;;;0.30;0.30;;;;;;;;;;5012124;28;20026;-73
2021/05/17 10:37:36;;;;;;;;;;;;;;;;;;5043142;28;20502;-74
2021/05/17 10:40:04;;;;;;;0.30;0.30;;;;;;;;;;5025407;28;19932;-74
2021/05/17 10:42:45;;;;;;;0.30;0.30;;;;;;;;;;5007220;28;20040;-74
2021/05/17 10:48:17;;;;;;;0.30;0.30;;;;;;;;;;5008479;28;20088;-74
2021/05/17 10:50:43;;;;;;;0.40;0.40;;;;;;;;;;5024439;28;20033;-74
2021/05/17 10:53:27;;;;;;;0.40;0.40;;;;;;;;;;5014202;28;20076;-70
2021/05/17 10:55:56;;;;;;;0.30;0.30;;;;;;;;;;5008961;28;20152;-70
2021/05/17 11:00:22;;;;;;;0.38;0.38;;;;;;;;;;5009042;28;20641;-70
2021/05/17 11:01:29;;;;;;;0.40;0.40;;;;;;;;;;5009199;28;20034;-71
2021/05/17 11:04:13;;;;;;;0.40;0.40;;;;;;;;;;5007841;28;20431;-71
2021/05/17 11:06:39;;;;;;;0.30;0.30;;;;;;;;;;5008812;28;20029;-72
2021/05/17 11:09:07;;;;;;;0.30;0.30;;;;;;;;;;5009238;28;20388;-72
2021/05/17 11:11:33;;;;;;;0.20;0.20;;;;;;;;;;5007277;28;20022;-72
2021/05/17 11:14:16;;;;;;;0.20;0.20;;;;;;;;;;5009434;28;20014;-70
2021/05/17 11:16:57;;;;;;;0.28;0.28;;;;;;;;;;5008725;28;20064;-71
2021/05/17 11:19:22;;;;;;;0.52;0.30;;;;;;;;;;5008576;28;20048;-70
2021/05/17 11:21:57;;;;;;;0.30;0.30;;;;;;;;;;5008384;28;20484;-70
2021/05/17 11:24:24;;;;;;;0.40;0.40;;;;;;;;;;5008728;28;20022;-72
2021/05/17 11:26:51;;;;;;;0.40;0.40;;;;;;;;;;5009658;28;20032;-70
2021/05/17 11:29:30;;;;;;;0.43;0.43;;;;;;;;;;5024019;28;20026;-70
2021/05/17 11:32:07;;;;;;;0.50;0.50;;;;;;;;;;5006796;28;20058;-70
2021/05/17 11:34:32;;;;;;;0.50;0.50;;;;;;;;;;5008103;28;20369;-70
2021/05/17 11:37:23;;;;;;;0.50;0.50;;;;;;;;;;5008945;28;20026;-70
2021/05/17 11:39:49;;;;;;;0.50;0.50;;;;;;;;;;5009251;28;20030;-73
2021/05/17 11:42:17;;;;;;;0.60;0.60;;;;;;;;;;5007660;28;20036;-73
2021/05/17 11:47:10;;;;;;;0.50;0.50;;;;;;;;;;5009225;28;20076;-73
2021/05/17 11:49:37;;;;;;;0.60;0.60;;;;;;;;;;5007657;28;20044;-71
2021/05/17 11:52:09;;;;;;;0.60;0.60;;;;;;;;;;5008890;28;20535;-72
2021/05/17 11:54:45;;;;;;;0.60;0.60;;;;;;;;;;5008123;28;20018;-72
2021/05/17 11:57:11;;;;;;;0.50;0.50;;;;;;;;;;5008824;28;20104;-72
2021/05/17 11:59:37;;;;;;;0.60;0.60;;;;;;;;;;5008723;28;20108;-72
2021/05/17 12:02:05;;;;;;;0.70;0.70;;;;;;;;;;5008599;28;20052;-72
2021/05/17 12:04:39;;;;;;;0.60;0.60;;;;;;;;;;5006307;28;20018;-70
2021/05/17 12:07:06;;;;;;;0.52;0.52;;;;;;;;;;5009079;28;20018;-69
2021/05/17 12:09:37;;;;;;;0.60;0.60;;;;;;;;;;5007939;28;20025;-71
2021/05/17 12:12:06;;;;;;;0.50;0.50;;;;;;;;;;5006430;28;20037;-70
2021/05/17 12:14:32;;;;;;;0.70;0.70;;;;;;;;;;5008160;28;20021;-70
2021/05/17 12:17:00;;;;;;;0.60;0.60;;;;;;;;;;5006470;28;20030;-71
2021/05/17 12:19:25;;;;;;;0.80;0.50;;;;;;;;;;5008180;28;20029;-70
2021/05/17 12:21:55;;;;;;;0.50;0.50;;;;;;;;;;5006917;28;20104;-72
2021/05/17 12:24:24;;;;;;;0.40;0.40;;;;;;;;;;5008199;28;20334;-69
2021/05/17 12:26:50;;;;;;;0.50;0.50;;;;;;;;;;5007892;28;20030;-69
2021/05/17 12:29:16;;;;;;;0.60;0.60;;;;;;;;;;5008411;28;20025;-70
2021/05/17 12:31:41;;;;;;;0.30;0.30;;;;;;;;;;5008438;28;20100;-70
2021/05/17 12:34:10;;;;;;;0.30;0.30;;;;;;;;;;5011859;28;20472;-70
2021/05/17 12:36:35;;;;;;;0.30;0.30;;;;;;;;;;5018853;28;20021;-69
2021/05/17 12:39:01;;;;;;;0.20;0.20;;;;;;;;;;5022825;28;20476;-70
2021/05/17 12:41:33;;;;;;;0.10;0.10;;;;;;;;;;5007451;28;20025;-69
2021/05/17 12:43:59;;;;;;;0.10;0.10;;;;;;;;;;5007391;28;20021;-71
2021/05/17 12:46:27;;;;;;;0.15;0.15;;;;;;;;;;5007509;28;20029;-70
2021/05/17 12:48:54;;;;;;;0.20;0.20;;;;;;;;;;5012107;28;20057;-70
2021/05/17 12:51:31;;;;;;;0.20;0.20;;;;;;;;;;5004176;28;20022;-69
2021/05/17 12:54:12;;;;;;;0.20;0.20;;;;;;;;;;5008449;28;20030;-69
2021/05/17 12:56:38;;;;;;;0.40;0.40;;;;;;;;;;5008853;28;20053;-70
2021/05/17 12:59:12;;;;;;;0.30;0.30;;;;;;;;;;5014387;28;20029;-71
2021/05/17 13:01:40;;;;;;;0.20;0.20;;;;;;;;;;5006720;28;20036;-70
2021/05/17 13:04:07;;;;;;;0.40;0.40;;;;;;;;;;5011677;28;20046;-70
2021/05/17 13:06:32;;;;;;;;;;;;;;;;;;5008425;28;20476;-69
2021/05/17 13:08:58;;;;;;;0.40;0.40;;;;;;;;;;5031499;28;20406;-71
2021/05/17 13:11:27;;;;;;;0.30;0.30;;;;;;;;;;5009079;28;20021;-70
2021/05/17 13:13:53;;;;;;;0.40;0.40;;;;;;;;;;5006093;28;20053;-71
2021/05/17 13:16:19;;;;;;;0.40;0.40;;;;;;;;;;5007533;28;20384;-70
2021/05/17 13:18:51;;;;;;;0.30;0.30;;;;;;;;;;5007240;28;20263;-71
2021/05/17 13:21:19;;;;;;;0.30;0.30;;;;;;;;;;5009740;28;20037;-71
2021/05/17 13:30:09;;;;;;;0.20;0.20;;;;;;;;;;5010249;28;20064;-70
2021/05/17 13:32:36;;;;;;;0.20;0.20;;;;;;;;;;5003766;28;20585;-70
2021/05/17 13:35:01;;;;;;;0.30;0.30;;;;;;;;;;5007255;28;20515;-68
2021/05/17 13:37:27;;;;;;;0.30;0.30;;;;;;;;;;5009576;28;20042;-69
2021/05/17 13:39:52;;;;;;;0.28;0.28;;;;;;;;;;5006569;28;20021;-71
2021/05/17 13:42:17;;;;;;;0.40;0.40;;;;;;;;;;5006621;28;20022;-70
2021/05/17 13:44:43;;;;;;;0.30;0.30;;;;;;;;;;5011802;28;20459;-70
2021/05/17 13:47:10;;;;;;;0.35;0.35;;;;;;;;;;5012548;28;20033;-69
2021/05/17 13:49:37;;;;;;;0.52;0.50;;;;;;;;;;5022386;28;20071;-68
2021/05/17 13:52:03;;;;;;;0.50;0.50;;;;;;;;;;5008659;28;20455;-69
2021/05/17 13:54:28;;;;;;;0.38;0.38;;;;;;;;;;5007072;28;20030;-70
2021/05/17 13:56:53;;;;;;;0.40;0.40;;;;;;;;;;5018908;28;20033;-72
2021/05/17 13:59:18;;;;;;;0.50;0.50;;;;;;;;;;5020029;28;20267;-75
2021/05/17 14:01:44;;;;;;;0.40;0.40;;;;;;;;;;5006775;28;20089;-71
2021/05/17 14:04:09;;;;;;;0.50;0.50;;;;;;;;;;5009610;28;20049;-71
2021/05/17 14:06:36;;;;;;;0.60;0.60;;;;;;;;;;5007505;28;20026;-70
2021/05/17 14:09:01;;;;;;;0.60;0.60;;;;;;;;;;5004726;28;20022;-69
2021/05/17 14:11:27;;;;;;;1.00;0.60;;;;;;;;;;5007669;28;20041;-72
2021/05/17 14:13:53;;;;;;;0.57;0.57;;;;;;;;;;5000768;28;20431;-69
2021/05/17 14:16:18;;;;;;;0.50;0.50;;;;;;;;;;5011369;28;20022;-70
2021/05/17 14:18:43;;;;;;;0.55;0.55;;;;;;;;;;5003901;28;20294;-69
2021/05/17 14:21:09;;;;;;;0.70;0.70;;;;;;;;;;5021066;28;20024;-69
2021/05/17 14:23:34;;;;;;;0.70;0.70;;;;;;;;;;5015819;28;20041;-67
2021/05/17 14:26:00;;;;;;;0.60;0.60;;;;;;;;;;5017967;28;20029;-69
2021/05/17 14:28:27;;;;;;;0.50;0.50;;;;;;;;;;5025615;28;20143;-68
2021/05/17 14:30:52;;;;;;;0.50;0.50;;;;;;;;;;5029893;28;20029;-69
2021/05/17 14:33:18;;;;;;;0.40;0.40;;;;;;;;;;5013723;28;20384;-69
2021/05/17 14:35:43;;;;;;;0.22;0.22;;;;;;;;;;5029559;28;20564;-68
2021/05/17 14:38:08;;;;;;;0.20;0.20;;;;;;;;;;5013276;28;20037;-69
2021/05/17 14:40:34;;;;;;;0.20;0.20;;;;;;;;;;5016978;28;20025;-68
2021/05/17 14:42:59;;;;;;;0.20;0.20;;;;;;;;;;5012128;28;20105;-69
2021/05/17 14:45:24;;;;;;;0.30;0.30;;;;;;;;;;5009029;28;20025;-68
2021/05/17 14:47:49;;;;;;;0.30;0.30;;;;;;;;;;5008056;28;20055;-69
2021/05/17 14:50:15;;;;;;;0.32;0.32;;;;;;;;;;5009935;28;20292;-68
2021/05/17 14:52:42;;;;;;;0.38;0.38;;;;;;;;;;5017911;28;20454;-68
2021/05/17 14:55:08;;;;;;;0.30;0.30;;;;;;;;;;5012090;28;20044;-76
2021/05/17 14:57:33;;;;;;;0.30;0.30;;;;;;;;;;5022912;28;20026;-76
2021/05/17 14:59:59;;;;;;;0.40;0.40;;;;;;;;;;5007996;28;20026;-76
2021/05/17 15:02:26;;;;;;;0.30;0.30;;;;;;;;;;5009841;28;20034;-76
2021/05/17 15:04:51;;;;;;;0.50;0.50;;;;;;;;;;5011350;28;20026;-78
2021/05/17 15:07:16;;;;;;;0.40;0.40;;;;;;;;;;5034786;28;20029;-75
2021/05/17 15:47:08;;;;;;;0.40;0.40;;;;;;;-144.31;100.00;73868.25;5092530;27;20380;-75
2021/05/17 15:49:33;;;;;;;0.43;0.43;;;;;;;-144.31;100.00;73846.28;5082258;28;20031;-76
2021/05/17 15:51:59;;;;;;;0.73;0.73;;;;;;;-144.31;100.00;72997.91;5077265;28;20152;-75